sensor_id;sensor_type;location;lat;lon;timestamp;temperature;humidity
16477;DHT22;8349;50.928;6.376;2023-02-01T04:03:06;5.90;99.90
16477;DHT22;8349;50.928;6.376;2023-02-01T04:05:33;5.90;99.90
16477;DHT22;8349;50.928;6.376;2023-02-01T04:08:03;5.90;99.90
16477;DHT22;8349;50.928;6.376;2023-02-01T04:10:31;5.80;99.90
16477;DHT22;8349;50.928;6.376;2023-02-01T04:12:57;5.80;99.90
16477;DHT22;8349;50.928;6.376;2023-02-01T04:15:24;5.80;99.90
16477;DHT22;8349;50.928;6.376;2023-02-01T04:17:51;5.80;99.90
16477;DHT22;8349;50.928;6.376;2023-02-01T04:20:19;5.90;99.90
16477;DHT22;8349;50.928;6.376;2023-02-01T04:22:46;5.90;99.90
16477;DHT22;8349;50.928;6.376;2023-02-01T04:25:12;5.80;99.90
16477;DHT22;8349;50.928;6.376;2023-02-01T04:27:39;5.80;99.90
16477;DHT22;8349;50.928;6.376;2023-02-01T04:30:06;5.80;99.90
16477;DHT22;8349;50.928;6.376;2023-02-01T04:32:35;5.90;99.90
16477;DHT22;8349;50.928;6.376;2023-02-01T04:35:01;5.90;99.90
16477;DHT22;8349;50.928;6.376;2023-02-01T04:37:29;5.80;99.90
16477;DHT22;8349;50.928;6.376;2023-02-01T04:39:56;5.80;99.90
16477;DHT22;8349;50.928;6.376;2023-02-01T04:42:22;5.80;99.90
16477;DHT22;8349;50.928;6.376;2023-02-01T04:44:49;5.80;99.90
16477;DHT22;8349;50.928;6.376;2023-02-01T04:47:16;5.80;99.90
16477;DHT22;8349;50.928;6.376;2023-02-01T04:49:42;5.80;99.90
16477;DHT22;8349;50.928;6.376;2023-02-01T04:52:09;5.80;99.90
16477;DHT22;8349;50.928;6.376;2023-02-01T04:54:37;5.80;99.90
16477;DHT22;8349;50.928;6.376;2023-02-01T04:57:03;5.70;99.90
16477;DHT22;8349;50.928;6.376;2023-02-01T04:59:30;5.80;99.90
16477;DHT22;8349;50.928;6.376;2023-02-01T05:01:57;5.80;99.90
16477;DHT22;8349;50.928;6.376;2023-02-01T05:04:23;5.70;99.90
16477;DHT22;8349;50.928;6.376;2023-02-01T05:06:50;5.60;99.90
16477;DHT22;8349;50.928;6.376;2023-02-01T05:09:16;5.70;99.90
16477;DHT22;8349;50.928;6.376;2023-02-01T05:11:44;5.70;99.90
16477;DHT22;8349;50.928;6.376;2023-02-01T05:14:29;5.60;99.90
16477;DHT22;8349;50.928;6.376;2023-02-01T05:16:55;5.60;99.90
16477;DHT22;8349;50.928;6.376;2023-02-01T05:19:22;5.60;99.90
16477;DHT22;8349;50.928;6.376;2023-02-01T05:21:49;5.50;99.90
16477;DHT22;8349;50.928;6.376;2023-02-01T05:24:15;5.40;99.90
16477;DHT22;8349;50.928;6.376;2023-02-01T05:26:46;5.40;99.90
16477;DHT22;8349;50.928;6.376;2023-02-01T05:29:13;5.40;99.90
16477;DHT22;8349;50.928;6.376;2023-02-01T05:31:40;5.50;99.90
16477;DHT22;8349;50.928;6.376;2023-02-01T05:34:07;5.40;99.90
16477;DHT22;8349;50.928;6.376;2023-02-01T05:36:34;5.40;99.90
16477;DHT22;8349;50.928;6.376;2023-02-01T05:39:01;5.40;99.90
16477;DHT22;8349;50.928;6.376;2023-02-01T05:41:28;5.40;99.90
16477;DHT22;8349;50.928;6.376;2023-02-01T05:43:56;5.40;99.90
16477;DHT22;8349;50.928;6.376;2023-02-01T05:46:23;5.30;99.90
16477;DHT22;8349;50.928;6.376;2023-02-01T05:48:50;5.30;99.90
16477;DHT22;8349;50.928;6.376;2023-02-01T05:51:17;5.30;99.90
16477;DHT22;8349;50.928;6.376;2023-02-01T05:53:43;5.30;99.90
16477;DHT22;8349;50.928;6.376;2023-02-01T05:56:10;5.20;99.90
16477;DHT22;8349;50.928;6.376;2023-02-01T05:58:37;5.20;99.90
16477;DHT22;8349;50.928;6.376;2023-02-01T06:01:05;5.20;99.90
16477;DHT22;8349;50.928;6.376;2023-02-01T06:03:32;5.20;99.90
16477;DHT22;8349;50.928;6.376;2023-02-01T06:05:59;5.20;99.90
16477;DHT22;8349;50.928;6.376;2023-02-01T06:08:26;5.20;99.90
16477;DHT22;8349;50.928;6.376;2023-02-01T06:10:57;5.20;99.90
16477;DHT22;8349;50.928;6.376;2023-02-01T06:13:23;5.20;99.90
16477;DHT22;8349;50.928;6.376;2023-02-01T06:15:50;5.10;99.90
16477;DHT22;8349;50.928;6.376;2023-02-01T06:18:19;5.10;99.90
16477;DHT22;8349;50.928;6.376;2023-02-01T06:20:51;5.10;99.90
16477;DHT22;8349;50.928;6.376;2023-02-01T06:23:18;5.10;99.90
16477;DHT22;8349;50.928;6.376;2023-02-01T06:25:44;5.10;99.90
16477;DHT22;8349;50.928;6.376;2023-02-01T06:28:11;5.10;99.90
16477;DHT22;8349;50.928;6.376;2023-02-01T06:30:38;5.00;99.90
16477;DHT22;8349;50.928;6.376;2023-02-01T06:33:08;5.00;99.90
16477;DHT22;8349;50.928;6.376;2023-02-01T06:35:36;4.90;99.90
16477;DHT22;8349;50.928;6.376;2023-02-01T06:38:03;4.90;99.90
16477;DHT22;8349;50.928;6.376;2023-02-01T06:40:30;4.90;99.90
16477;DHT22;8349;50.928;6.376;2023-02-01T06:42:57;4.90;99.90
16477;DHT22;8349;50.928;6.376;2023-02-01T06:45:23;4.90;99.90
16477;DHT22;8349;50.928;6.376;2023-02-01T06:47:50;4.90;99.90
16477;DHT22;8349;50.928;6.376;2023-02-01T06:50:17;4.90;99.90
16477;DHT22;8349;50.928;6.376;2023-02-01T06:52:45;4.90;99.90
16477;DHT22;8349;50.928;6.376;2023-02-01T06:55:12;4.80;99.90
16477;DHT22;8349;50.928;6.376;2023-02-01T06:57:39;4.80;99.90
16477;DHT22;8349;50.928;6.376;2023-02-01T07:00:06;4.80;99.90
16477;DHT22;8349;50.928;6.376;2023-02-01T07:02:33;4.90;99.90
16477;DHT22;8349;50.928;6.376;2023-02-01T07:05:00;4.80;99.90
16477;DHT22;8349;50.928;6.376;2023-02-01T07:07:27;4.80;99.90
16477;DHT22;8349;50.928;6.376;2023-02-01T07:09:55;4.80;99.90
16477;DHT22;8349;50.928;6.376;2023-02-01T07:12:22;4.80;99.90
16477;DHT22;8349;50.928;6.376;2023-02-01T07:14:48;4.80;99.90
16477;DHT22;8349;50.928;6.376;2023-02-01T07:17:15;4.70;99.90
16477;DHT22;8349;50.928;6.376;2023-02-01T07:19:42;4.80;99.90
16477;DHT22;8349;50.928;6.376;2023-02-01T07:22:09;4.70;99.90
16477;DHT22;8349;50.928;6.376;2023-02-01T07:24:36;4.70;99.90
16477;DHT22;8349;50.928;6.376;2023-02-01T07:27:04;4.80;99.90
16477;DHT22;8349;50.928;6.376;2023-02-01T07:29:31;4.80;99.90
16477;DHT22;8349;50.928;6.376;2023-02-01T07:31:58;4.80;99.90
16477;DHT22;8349;50.928;6.376;2023-02-01T07:34:25;4.80;99.90
16477;DHT22;8349;50.928;6.376;2023-02-01T07:36:52;4.80;99.90
16477;DHT22;8349;50.928;6.376;2023-02-01T07:39:19;4.80;99.90
16477;DHT22;8349;50.928;6.376;2023-02-01T07:41:46;4.90;99.90
16477;DHT22;8349;50.928;6.376;2023-02-01T07:44:14;4.90;99.90
16477;DHT22;8349;50.928;6.376;2023-02-01T07:46:44;4.90;99.90
16477;DHT22;8349;50.928;6.376;2023-02-01T07:49:11;4.90;99.90
16477;DHT22;8349;50.928;6.376;2023-02-01T07:51:39;4.90;99.90
16477;DHT22;8349;50.928;6.376;2023-02-01T07:54:06;4.90;99.90
16477;DHT22;8349;50.928;6.376;2023-02-01T07:56:32;5.00;99.90
16477;DHT22;8349;50.928;6.376;2023-02-01T07:58:59;5.00;99.90
16477;DHT22;8349;50.928;6.376;2023-02-01T08:01:28;5.00;99.90
16477;DHT22;8349;50.928;6.376;2023-02-01T08:03:55;5.10;99.90
16477;DHT22;8349;50.928;6.376;2023-02-01T08:06:22;5.10;99.90
16477;DHT22;8349;50.928;6.376;2023-02-01T08:08:50;5.10;99.90
16477;DHT22;8349;50.928;6.376;2023-02-01T08:11:17;5.20;99.90
16477;DHT22;8349;50.928;6.376;2023-02-01T08:13:44;5.20;99.90
16477;DHT22;8349;50.928;6.376;2023-02-01T08:16:12;5.20;99.90
16477;DHT22;8349;50.928;6.376;2023-02-01T08:18:40;5.10;99.90
16477;DHT22;8349;50.928;6.376;2023-02-01T08:21:08;5.20;99.90
16477;DHT22;8349;50.928;6.376;2023-02-01T08:23:36;5.20;99.90
16477;DHT22;8349;50.928;6.376;2023-02-01T08:26:07;5.20;99.90
16477;DHT22;8349;50.928;6.376;2023-02-01T08:28:34;5.20;99.90
16477;DHT22;8349;50.928;6.376;2023-02-01T08:31:03;5.30;99.90
16477;DHT22;8349;50.928;6.376;2023-02-01T08:33:30;5.30;99.90
16477;DHT22;8349;50.928;6.376;2023-02-01T08:35:58;5.40;99.90
16477;DHT22;8349;50.928;6.376;2023-02-01T08:38:26;5.50;99.90
16477;DHT22;8349;50.928;6.376;2023-02-01T08:40:53;5.50;99.90
16477;DHT22;8349;50.928;6.376;2023-02-01T08:43:20;5.60;99.90
16477;DHT22;8349;50.928;6.376;2023-02-01T08:45:46;5.60;99.90
16477;DHT22;8349;50.928;6.376;2023-02-01T08:48:13;5.70;99.90
16477;DHT22;8349;50.928;6.376;2023-02-01T08:50:40;5.80;99.90
16477;DHT22;8349;50.928;6.376;2023-02-01T08:53:08;5.90;99.90
16477;DHT22;8349;50.928;6.376;2023-02-01T08:55:37;5.90;99.90
16477;DHT22;8349;50.928;6.376;2023-02-01T08:58:04;5.90;99.90
16477;DHT22;8349;50.928;6.376;2023-02-01T09:00:31;5.90;99.90
16477;DHT22;8349;50.928;6.376;2023-02-01T09:02:57;5.90;99.90
16477;DHT22;8349;50.928;6.376;2023-02-01T09:05:25;5.90;99.90
16477;DHT22;8349;50.928;6.376;2023-02-01T09:07:53;5.90;99.90
16477;DHT22;8349;50.928;6.376;2023-02-01T09:10:21;5.80;99.90
16477;DHT22;8349;50.928;6.376;2023-02-01T09:12:48;5.80;99.90
16477;DHT22;8349;50.928;6.376;2023-02-01T09:15:15;5.90;99.90
16477;DHT22;8349;50.928;6.376;2023-02-01T09:17:41;6.00;99.90
16477;DHT22;8349;50.928;6.376;2023-02-01T09:20:09;6.00;99.90
16477;DHT22;8349;50.928;6.376;2023-02-01T09:22:36;6.10;99.90
16477;DHT22;8349;50.928;6.376;2023-02-01T09:25:03;6.10;99.90
16477;DHT22;8349;50.928;6.376;2023-02-01T09:27:31;6.10;99.90
16477;DHT22;8349;50.928;6.376;2023-02-01T09:29:58;6.20;99.90
16477;DHT22;8349;50.928;6.376;2023-02-01T09:32:25;6.30;99.90
16477;DHT22;8349;50.928;6.376;2023-02-01T09:34:52;6.40;99.90
16477;DHT22;8349;50.928;6.376;2023-02-01T09:37:19;6.50;99.90
16477;DHT22;8349;50.928;6.376;2023-02-01T09:39:46;6.50;99.90
16477;DHT22;8349;50.928;6.376;2023-02-01T09:42:19;6.60;99.90
16477;DHT22;8349;50.928;6.376;2023-02-01T09:44:58;6.60;99.90
16477;DHT22;8349;50.928;6.376;2023-02-01T09:47:29;6.60;99.90
16477;DHT22;8349;50.928;6.376;2023-02-01T09:49:59;6.60;99.90
16477;DHT22;8349;50.928;6.376;2023-02-01T09:52:28;6.80;99.90
16477;DHT22;8349;50.928;6.376;2023-02-01T09:54:58;6.80;99.90
16477;DHT22;8349;50.928;6.376;2023-02-01T09:57:40;6.90;99.90
16477;DHT22;8349;50.928;6.376;2023-02-01T10:00:12;6.90;99.90
16477;DHT22;8349;50.928;6.376;2023-02-01T10:02:40;7.00;99.90
16477;DHT22;8349;50.928;6.376;2023-02-01T10:05:11;7.00;99.90
16477;DHT22;8349;50.928;6.376;2023-02-01T10:07:40;7.10;99.90
16477;DHT22;8349;50.928;6.376;2023-02-01T10:10:11;7.20;99.90
16477;DHT22;8349;50.928;6.376;2023-02-01T10:12:48;7.30;99.90
16477;DHT22;8349;50.928;6.376;2023-02-01T10:15:26;7.40;99.90
16477;DHT22;8349;50.928;6.376;2023-02-01T10:18:00;7.30;99.90
16477;DHT22;8349;50.928;6.376;2023-02-01T10:20:35;7.10;99.90
16477;DHT22;8349;50.928;6.376;2023-02-01T10:23:07;7.30;99.90
16477;DHT22;8349;50.928;6.376;2023-02-01T10:25:37;7.60;99.90
16477;DHT22;8349;50.928;6.376;2023-02-01T10:28:06;7.50;99.90
16477;DHT22;8349;50.928;6.376;2023-02-01T10:30:38;7.60;99.90
16477;DHT22;8349;50.928;6.376;2023-02-01T10:33:12;7.60;99.90
16477;DHT22;8349;50.928;6.376;2023-02-01T10:35:40;7.70;99.90
16477;DHT22;8349;50.928;6.376;2023-02-01T10:38:08;7.60;99.90
16477;DHT22;8349;50.928;6.376;2023-02-01T10:40:39;7.80;99.90
16477;DHT22;8349;50.928;6.376;2023-02-01T10:43:07;7.90;99.90
16477;DHT22;8349;50.928;6.376;2023-02-01T10:45:36;7.90;99.90
16477;DHT22;8349;50.928;6.376;2023-02-01T10:48:06;9.90;99.90
16477;DHT22;8349;50.928;6.376;2023-02-01T10:50:35;9.10;99.90
16477;DHT22;8349;50.928;6.376;2023-02-01T10:53:05;9.70;99.90
16477;DHT22;8349;50.928;6.376;2023-02-01T10:55:35;11.10;99.90
16477;DHT22;8349;50.928;6.376;2023-02-01T10:58:03;10.40;99.90
16477;DHT22;8349;50.928;6.376;2023-02-01T11:00:37;9.30;99.90
16477;DHT22;8349;50.928;6.376;2023-02-01T11:03:20;10.50;99.90
16477;DHT22;8349;50.928;6.376;2023-02-01T11:05:47;13.00;99.90
16477;DHT22;8349;50.928;6.376;2023-02-01T11:08:14;12.80;99.90
16477;DHT22;8349;50.928;6.376;2023-02-01T11:10:43;13.00;99.90
16477;DHT22;8349;50.928;6.376;2023-02-01T11:13:11;13.60;99.90
16477;DHT22;8349;50.928;6.376;2023-02-01T11:15:42;13.20;99.90
16477;DHT22;8349;50.928;6.376;2023-02-01T11:18:14;13.70;99.90
16477;DHT22;8349;50.928;6.376;2023-02-01T11:20:43;12.40;99.90
16477;DHT22;8349;50.928;6.376;2023-02-01T11:23:13;11.20;99.90
16477;DHT22;8349;50.928;6.376;2023-02-01T11:25:47;11.70;99.90
16477;DHT22;8349;50.928;6.376;2023-02-01T11:28:14;11.30;99.90
16477;DHT22;8349;50.928;6.376;2023-02-01T11:30:42;9.80;99.90
16477;DHT22;8349;50.928;6.376;2023-02-01T11:33:12;8.90;99.90
16477;DHT22;8349;50.928;6.376;2023-02-01T11:35:39;8.50;99.90
16477;DHT22;8349;50.928;6.376;2023-02-01T11:38:15;9.20;99.90
16477;DHT22;8349;50.928;6.376;2023-02-01T11:40:44;9.10;99.90
16477;DHT22;8349;50.928;6.376;2023-02-01T11:43:22;8.80;99.90
16477;DHT22;8349;50.928;6.376;2023-02-01T11:45:56;8.70;99.90
16477;DHT22;8349;50.928;6.376;2023-02-01T11:48:24;8.40;99.90
16477;DHT22;8349;50.928;6.376;2023-02-01T11:50:53;8.40;99.90
16477;DHT22;8349;50.928;6.376;2023-02-01T11:53:32;8.50;99.90
16477;DHT22;8349;50.928;6.376;2023-02-01T11:56:03;8.40;99.90
16477;DHT22;8349;50.928;6.376;2023-02-01T11:58:35;8.80;99.90
16477;DHT22;8349;50.928;6.376;2023-02-01T12:01:09;8.60;99.90
16477;DHT22;8349;50.928;6.376;2023-02-01T12:03:49;8.50;99.90
16477;DHT22;8349;50.928;6.376;2023-02-01T12:06:22;8.50;99.90
16477;DHT22;8349;50.928;6.376;2023-02-01T12:09:05;8.50;99.90
16477;DHT22;8349;50.928;6.376;2023-02-01T12:11:36;8.40;99.90
16477;DHT22;8349;50.928;6.376;2023-02-01T12:14:11;8.10;99.90
16477;DHT22;8349;50.928;6.376;2023-02-01T12:16:45;8.00;99.90
16477;DHT22;8349;50.928;6.376;2023-02-01T12:19:28;7.90;99.90
16477;DHT22;8349;50.928;6.376;2023-02-01T12:22:05;7.80;99.90
16477;DHT22;8349;50.928;6.376;2023-02-01T12:24:46;7.80;99.90
16477;DHT22;8349;50.928;6.376;2023-02-01T12:27:19;7.90;99.90
16477;DHT22;8349;50.928;6.376;2023-02-01T12:29:56;8.00;99.90
16477;DHT22;8349;50.928;6.376;2023-02-01T12:32:32;8.10;99.90
16477;DHT22;8349;50.928;6.376;2023-02-01T12:35:10;8.20;99.90
16477;DHT22;8349;50.928;6.376;2023-02-01T12:37:44;8.40;99.90
16477;DHT22;8349;50.928;6.376;2023-02-01T12:40:24;8.30;99.90
16477;DHT22;8349;50.928;6.376;2023-02-01T12:43:03;8.10;99.90
16477;DHT22;8349;50.928;6.376;2023-02-01T12:45:32;8.00;99.90
16477;DHT22;8349;50.928;6.376;2023-02-01T12:48:02;7.90;99.90
16477;DHT22;8349;50.928;6.376;2023-02-01T12:50:35;7.80;99.90
16477;DHT22;8349;50.928;6.376;2023-02-01T12:53:08;7.70;99.90
16477;DHT22;8349;50.928;6.376;2023-02-01T12:55:41;7.70;99.90
16477;DHT22;8349;50.928;6.376;2023-02-01T12:58:12;7.70;99.90
16477;DHT22;8349;50.928;6.376;2023-02-01T13:00:40;7.70;99.90
16477;DHT22;8349;50.928;6.376;2023-02-01T13:03:10;7.70;99.90
16477;DHT22;8349;50.928;6.376;2023-02-01T13:05:44;7.70;99.90
16477;DHT22;8349;50.928;6.376;2023-02-01T13:08:14;7.70;99.90
16477;DHT22;8349;50.928;6.376;2023-02-01T13:10:43;7.70;99.90
16477;DHT22;8349;50.928;6.376;2023-02-01T13:13:14;7.70;99.90
16477;DHT22;8349;50.928;6.376;2023-02-01T13:15:43;7.70;99.90
16477;DHT22;8349;50.928;6.376;2023-02-01T13:18:13;7.70;99.90
16477;DHT22;8349;50.928;6.376;2023-02-01T13:20:42;7.70;99.90
16477;DHT22;8349;50.928;6.376;2023-02-01T13:23:11;7.80;99.90
16477;DHT22;8349;50.928;6.376;2023-02-01T13:25:43;7.80;99.90
16477;DHT22;8349;50.928;6.376;2023-02-01T13:28:14;7.80;99.90
16477;DHT22;8349;50.928;6.376;2023-02-01T13:30:48;7.90;99.90
16477;DHT22;8349;50.928;6.376;2023-02-01T13:33:28;7.80;99.90
16477;DHT22;8349;50.928;6.376;2023-02-01T13:39:04;7.90;99.90
16477;DHT22;8349;50.928;6.376;2023-02-01T13:41:35;7.90;99.90
16477;DHT22;8349;50.928;6.376;2023-02-01T13:44:09;7.90;99.90
16477;DHT22;8349;50.928;6.376;2023-02-01T13:46:38;8.00;99.90
16477;DHT22;8349;50.928;6.376;2023-02-01T13:49:05;8.00;99.90
16477;DHT22;8349;50.928;6.376;2023-02-01T13:51:34;7.90;99.90
16477;DHT22;8349;50.928;6.376;2023-02-01T13:54:01;7.90;99.90
16477;DHT22;8349;50.928;6.376;2023-02-01T13:56:38;8.00;99.90
16477;DHT22;8349;50.928;6.376;2023-02-01T14:01:48;8.00;99.90
16477;DHT22;8349;50.928;6.376;2023-02-01T14:07:01;8.10;99.90
16477;DHT22;8349;50.928;6.376;2023-02-01T14:09:32;8.10;99.90
16477;DHT22;8349;50.928;6.376;2023-02-01T14:14:41;8.20;99.90
16477;DHT22;8349;50.928;6.376;2023-02-01T14:22:49;8.20;99.90
16477;DHT22;8349;50.928;6.376;2023-02-01T14:25:16;8.20;99.90
16477;DHT22;8349;50.928;6.376;2023-02-01T14:27:43;8.20;99.90
16477;DHT22;8349;50.928;6.376;2023-02-01T14:30:11;8.20;99.90
16477;DHT22;8349;50.928;6.376;2023-02-01T14:32:40;8.20;99.90
16477;DHT22;8349;50.928;6.376;2023-02-01T14:35:17;8.20;99.90
16477;DHT22;8349;50.928;6.376;2023-02-01T14:37:45;8.20;99.90
16477;DHT22;8349;50.928;6.376;2023-02-01T14:40:16;8.20;99.90
16477;DHT22;8349;50.928;6.376;2023-02-01T14:42:46;8.20;99.90
16477;DHT22;8349;50.928;6.376;2023-02-01T14:50:40;8.30;99.90
16477;DHT22;8349;50.928;6.376;2023-02-01T14:53:18;8.30;99.90
16477;DHT22;8349;50.928;6.376;2023-02-01T14:55:49;8.30;99.90
16477;DHT22;8349;50.928;6.376;2023-02-01T14:58:19;8.30;99.90
16477;DHT22;8349;50.928;6.376;2023-02-01T15:00:47;8.20;99.90
16477;DHT22;8349;50.928;6.376;2023-02-01T15:03:32;8.30;99.90
16477;DHT22;8349;50.928;6.376;2023-02-01T15:06:01;8.30;99.90
16477;DHT22;8349;50.928;6.376;2023-02-01T15:08:32;8.30;99.90
16477;DHT22;8349;50.928;6.376;2023-02-01T15:11:02;8.30;99.90
16477;DHT22;8349;50.928;6.376;2023-02-01T15:13:29;8.30;99.90
16477;DHT22;8349;50.928;6.376;2023-02-01T15:15:59;8.30;99.90
16477;DHT22;8349;50.928;6.376;2023-02-01T15:18:26;8.30;99.90
16477;DHT22;8349;50.928;6.376;2023-02-01T15:20:55;8.30;99.90
16477;DHT22;8349;50.928;6.376;2023-02-01T15:23:22;8.30;99.90
16477;DHT22;8349;50.928;6.376;2023-02-01T15:25:49;8.20;99.90
16477;DHT22;8349;50.928;6.376;2023-02-01T15:28:17;8.30;99.90
16477;DHT22;8349;50.928;6.376;2023-02-01T15:30:51;8.20;99.90
16477;DHT22;8349;50.928;6.376;2023-02-01T15:33:18;8.20;99.90
16477;DHT22;8349;50.928;6.376;2023-02-01T15:35:46;8.10;99.90
16477;DHT22;8349;50.928;6.376;2023-02-01T15:38:30;8.00;99.90
16477;DHT22;8349;50.928;6.376;2023-02-01T15:40:58;7.90;99.90
16477;DHT22;8349;50.928;6.376;2023-02-01T16:08:06;7.50;99.90
16477;DHT22;8349;50.928;6.376;2023-02-01T16:10:38;7.50;99.90
16477;DHT22;8349;50.928;6.376;2023-02-01T16:13:05;7.40;99.90
16477;DHT22;8349;50.928;6.376;2023-02-01T16:15:32;7.40;99.90
16477;DHT22;8349;50.928;6.376;2023-02-01T16:17:59;7.40;99.90
16477;DHT22;8349;50.928;6.376;2023-02-01T21:49:46;7.10;99.90
16477;DHT22;8349;50.928;6.376;2023-02-01T21:52:14;7.10;99.90
